Date,TemperatureHighF,TemperatureAvgF,TemperatureLowF,DewpointHighF,DewpointAvgF,DewpointLowF,HumidityHigh,HumidityAvg,HumidityLow,PressureMaxIn,PressureMinIn,WindSpeedMaxMPH,WindSpeedAvgMPH,GustSpeedMaxMPH,PrecipitationSumIn
2013-1-1,34.6,26.6,16.2,33.2,24.7,13.8,96,93,88,30.24,30.01,8,2,10,0.01
2013-1-2,37.6,23.4,13.3,25.6,18.4,10.8,93,82,52,30.25,30.14,12,2,12,0.00
2013-1-3,48.2,30.6,20.0,30.2,23.7,17.6,94,77,43,30.40,30.23,6,1,6,0.00
2013-1-4,49.1,32.7,20.0,26.7,22.9,17.5,93,70,38,30.42,30.28,14,2,14,0.00
2013-1-5,43.4,36.7,30.2,33.8,28.8,22.2,88,73,64,30.29,30.13,19,4,19,0.00
2013-1-6,32.0,27.1,23.6,29.1,24.1,20.4,91,88,85,30.32,30.20,5,1,5,0.00
2013-2-23,34.0,30.6,28.6,23.9,23.1,21.8,80,74,64,29.97,29.94,4,1,4,0.00
2013-2-24,61.9,41.0,27.4,37.2,29.7,22.2,83,66,38,29.98,29.82,12,3,12,0.00
2013-2-25,40.7,36.9,32.8,35.0,31.6,28.4,93,81,63,29.90,29.47,20,7,20,0.37
2013-2-26,34.9,32.9,31.9,31.5,30.5,29.9,95,91,85,29.88,29.41,10,2,10,0.13
2013-2-27,37.4,32.9,30.6,30.7,28.3,25.9,92,83,73,30.06,29.85,12,4,12,0.18
2013-2-28,36.4,31.9,28.1,28.8,26.7,24.8,88,81,73,30.19,30.05,10,3,10,0.01
2013-3-1,30.8,28.6,25.9,25.9,23.9,21.5,88,82,72,30.25,30.15,7,2,7,0.00
2013-3-2,44.3,29.6,22.7,25.5,21.5,17.5,88,73,46,30.32,30.17,8,1,8,0.00
2013-3-3,61.2,43.0,24.3,35.3,27.4,19.1,82,56,36,30.18,29.76,13,5,13,0.00
2013-3-4,70.4,54.0,40.7,45.2,37.8,30.6,73,55,40,29.91,29.61,15,4,15,0.00
2013-3-5,40.7,36.3,33.3,33.9,29.8,20.8,93,78,54,30.20,29.89,16,5,16,0.07
2013-3-14,72.9,56.9,39.1,43.3,35.5,19.0,59,45,34,30.28,30.09,15,5,15,0.00
2013-3-15,80.3,64.7,49.9,50.0,45.8,40.6,76,52,32,30.11,29.78,21,7,21,0.00
2013-3-16,66.2,57.5,43.9,49.8,44.0,36.5,77,61,50,29.90,29.76,17,7,17,0.00
2013-3-17,43.7,40.1,37.4,40.4,37.6,34.7,95,91,77,29.92,29.69,15,6,15,0.25
2013-3-18,58.7,44.8,38.5,41.6,36.1,25.4,96,75,35,30.06,29.70,10,3,10,0.02
2013-3-19,56.9,42.9,32.6,30.7,25.3,17.8,75,52,27,30.25,30.02,11,3,11,0.00
2013-3-20,49.0,36.7,28.1,30.3,22.5,13.7,92,60,31,30.36,30.10,10,2,10,0.00
2013-3-21,39.4,33.7,30.8,30.4,21.5,12.5,91,63,36,30.11,29.82,17,6,17,0.02
2013-3-22,40.5,36.1,32.8,35.8,32.9,30.1,93,88,82,29.94,29.83,12,3,12,0.09
2013-3-23,40.0,37.9,35.8,38.3,35.8,33.1,94,92,89,29.94,29.73,14,4,14,0.13
2013-3-24,37.4,31.6,23.4,36.1,28.6,19.3,95,88,77,30.11,29.66,14,5,14,0.19
2013-3-25,36.2,27.6,21.4,27.2,21.7,17.0,87,79,66,30.32,30.09,12,4,12,0.02
2013-3-26,51.5,32.6,20.5,27.6,22.6,18.4,93,69,38,30.41,30.28,9,1,9,0.00
2013-3-27,61.0,44.7,28.1,29.9,25.1,20.3,75,50,25,30.30,30.14,13,4,13,0.00
2013-3-28,71.1,58.1,47.5,50.8,40.4,29.2,65,52,45,30.20,30.10,15,5,15,0.00
2013-3-29,74.5,60.1,52.0,56.4,50.0,46.3,92,71,46,30.19,30.10,9,4,9,0.09
2013-3-30,72.0,59.2,53.3,57.3,52.7,49.1,95,80,58,30.11,29.88,13,4,13,0.70
2013-3-31,72.2,57.1,46.4,52.4,45.2,36.2,94,68,31,30.00,29.88,10,2,10,0.09
2013-4-1,53.8,46.2,40.7,41.8,36.8,29.1,84,70,59,30.20,29.98,17,4,17,0.13
2013-4-2,40.7,37.1,34.9,35.5,32.5,28.5,90,84,63,30.28,30.18,13,5,13,0.43
2013-4-3,52.7,44.4,36.5,33.1,28.1,23.3,85,55,36,30.26,30.15,20,5,20,0.00
2013-4-4,61.9,49.2,40.3,37.5,33.0,27.3,75,55,34,30.16,30.07,7,2,7,0.00
2013-4-5,71.8,54.1,36.4,44.1,35.4,26.7,77,52,31,30.20,29.98,10,2,10,0.00
2013-4-6,73.8,65.9,54.9,51.9,46.4,34.8,62,50,41,29.98,29.80,27,9,27,0.00
2013-4-7,76.7,64.9,52.7,59.0,54.1,47.6,89,69,50,29.93,29.75,20,5,20,0.00
2013-4-8,75.1,65.9,59.9,62.1,57.6,54.0,87,75,63,29.81,29.73,15,6,15,0.00
2013-4-9,78.5,70.9,64.4,64.1,59.8,56.0,76,68,57,29.79,29.71,13,6,13,0.00
2013-4-10,72.0,44.4,34.9,62.5,41.7,33.3,94,91,68,29.94,29.72,22,4,22,1.47
2013-4-11,52.7,39.3,32.6,36.5,32.1,29.6,94,77,48,29.90,29.76,19,5,19,0.01
2013-4-12,59.0,44.3,31.3,38.6,32.9,27.4,87,66,44,30.04,29.80,13,3,13,0.00
2013-4-13,51.1,41.0,37.6,40.3,33.7,30.8,81,75,65,30.06,30.02,2,0,2,0.00
2013-4-14,79.0,71.1,60.5,57.3,52.7,50.0,87,55,38,29.72,29.53,16,5,16,0.03
2013-4-15,82.6,59.7,49.7,64.6,50.3,38.8,87,71,52,29.90,29.71,14,4,14,0.00
2013-4-16,62.1,51.7,47.5,53.5,47.3,43.5,92,85,73,30.02,29.88,12,5,12,0.01
2013-4-17,81.2,68.0,48.4,68.8,60.4,46.0,93,78,60,29.97,29.60,16,6,16,0.19
2013-4-18,72.9,47.5,36.7,64.8,43.0,28.1,93,85,71,30.00,29.55,11,6,15,2.16
2013-4-19,57.1,42.9,31.7,34.9,30.0,26.8,82,62,38,30.09,29.97,15,5,15,0.00
2013-4-20,68.8,52.0,35.1,41.4,34.4,28.6,82,54,30,30.19,30.08,8,2,9,0.00
2013-4-21,71.3,59.7,51.5,43.7,39.2,33.7,64,48,26,30.25,30.12,19,5,19,0.00
2013-4-22,72.0,60.7,47.7,47.4,41.5,37.2,69,50,35,30.18,29.89,14,5,14,0.00
2013-4-23,64.6,45.8,35.5,50.6,40.2,33.3,93,83,48,30.13,29.84,10,4,11,0.51
2013-4-24,58.0,42.8,32.2,35.5,31.4,26.5,93,67,37,30.30,30.12,10,3,10,0.01
2013-4-25,74.0,52.1,36.5,40.9,32.6,26.7,69,50,25,30.36,30.20,7,2,8,0.00
2013-4-26,59.6,50.9,47.7,47.7,43.9,34.7,93,79,40,30.31,30.10,16,6,16,1.03
2013-4-27,56.9,51.1,48.8,53.4,48.7,46.6,93,91,86,30.11,30.00,11,2,11,0.16
2013-4-28,83.0,64.5,49.0,57.4,51.8,47.0,94,66,39,30.04,29.88,8,2,8,0.00
2013-4-29,85.5,71.1,56.7,63.9,55.7,50.2,81,60,37,29.90,29.77,14,5,16,0.00
2013-4-30,83.5,71.0,62.3,58.5,53.6,46.7,74,56,31,29.88,29.80,12,4,12,0.00
2013-5-1,85.1,74.3,61.4,63.0,58.0,49.2,75,58,44,30.07,29.88,11,4,11,0.00
2013-5-2,65.2,43.9,32.4,55.9,40.2,30.3,92,87,72,30.29,30.06,9,3,10,0.29
2013-5-3,44.3,37.4,32.0,37.5,33.8,30.2,94,87,71,30.25,29.93,11,4,11,0.59
2013-5-4,46.6,39.0,32.8,39.0,34.9,30.7,93,85,71,30.02,29.84,10,2,10,0.15
2013-5-5,59.8,47.6,33.1,50.0,42.3,31.1,93,83,65,30.10,30.00,7,2,7,0.00
2013-5-6,67.3,53.3,47.7,54.2,48.3,44.7,92,84,62,30.11,30.03,6,1,6,0.00
2013-5-7,81.7,63.0,45.0,58.8,50.6,42.6,92,67,40,30.10,29.99,6,1,6,0.00
2013-5-8,80.5,65.7,57.4,62.2,54.6,48.8,88,68,43,30.11,29.91,13,2,13,0.17
2013-5-9,77.0,65.4,56.3,64.2,58.6,52.4,92,79,64,29.98,29.88,16,3,16,0.81
2013-5-10,66.6,58.4,49.5,57.5,54.5,45.6,91,87,68,30.07,29.92,6,1,6,0.01
2013-5-11,74.3,59.9,45.2,58.1,45.8,33.8,90,63,32,30.22,30.06,9,2,9,0.00
2013-5-12,69.5,54.7,39.2,47.2,38.2,28.2,84,57,29,30.29,30.16,8,1,8,0.02
2013-5-13,81.5,62.1,48.2,58.2,47.5,40.1,80,61,42,30.17,30.03,14,2,14,0.00
2013-5-14,87.3,76.7,63.0,58.1,54.3,50.1,68,48,30,30.05,29.96,19,5,19,0.00
2013-5-15,77.8,69.3,62.8,67.1,60.8,51.7,88,75,55,29.99,29.87,13,3,13,0.24
2013-5-16,72.5,64.2,60.8,62.3,59.0,57.0,89,83,70,29.91,29.84,6,2,6,0.03
2013-5-17,91.1,71.9,58.7,66.9,60.9,55.2,88,70,43,29.95,29.87,7,1,7,0.01
2013-5-18,88.2,75.1,63.4,74.1,66.1,57.4,84,74,62,29.94,29.80,12,3,12,0.00
2013-5-19,88.0,77.2,68.0,68.3,64.7,59.9,80,66,47,29.89,29.63,13,3,13,0.11
2013-5-20,77.2,66.1,60.3,67.8,59.6,54.5,85,80,67,29.84,29.71,22,4,22,1.19
2013-5-21,67.3,63.0,60.3,58.8,56.2,54.4,81,79,74,29.88,29.72,10,2,10,0.03
2013-6-3,69.8,68.4,67.0,55.5,54.4,53.1,61,61,60,29.95,29.92,6,2,6,0.00
2013-6-4,80.8,72.2,61.7,63.6,56.5,48.2,61,58,55,30.01,29.91,12,3,12,0.00
2013-6-5,82.3,70.7,59.6,62.3,53.8,45.3,63,55,50,29.99,29.89,10,3,12,1.31
2013-6-6,76.3,68.7,55.4,57.8,51.3,37.1,59,54,49,29.96,29.91,4,1,4,0.00
2013-6-7,79.4,67.2,52.2,58.2,49.2,34.7,61,53,40,30.01,29.93,6,1,6,0.00
2013-6-8,82.1,70.0,56.2,63.0,51.7,37.6,60,52,48,29.96,29.86,5,1,5,0.00
2013-6-9,85.1,72.3,64.6,63.7,52.2,43.8,57,49,44,29.92,29.84,6,2,6,0.00
2013-6-10,91.8,79.0,62.8,72.3,59.7,42.1,58,52,46,29.94,29.86,13,4,13,0.00
2013-6-11,93.2,83.0,73.8,72.6,64.0,55.0,62,53,38,30.01,29.92,16,4,16,0.00
2013-6-12,91.8,83.4,75.2,72.1,66.5,56.4,64,57,49,29.98,29.90,21,6,21,0.00
2013-6-13,93.8,79.3,68.8,70.2,61.0,47.6,62,54,45,30.06,29.95,8,2,8,0.00
2013-6-14,94.0,79.9,65.7,74.3,59.4,44.8,57,50,45,30.05,29.94,8,2,8,0.00
2013-6-15,90.2,76.5,66.1,71.8,55.2,44.7,56,48,44,30.05,29.95,12,2,12,0.99
2013-6-16,90.4,76.8,66.2,67.8,50.4,40.8,48,40,33,30.03,29.93,12,2,12,0.00
2013-6-17,80.8,68.8,64.3,50.6,37.6,32.2,38,32,26,29.99,29.92,13,1,13,0.15
2013-6-18,92.2,73.5,61.0,67.3,44.0,30.6,50,36,18,30.06,29.97,7,1,7,0.01
2013-6-19,88.4,79.5,61.4,68.0,49.5,11.2,53,38,11,30.07,29.99,9,1,9,0.00
2013-6-20,91.1,80.7,67.9,68.4,39.1,9.4,48,25,7,30.09,29.99,12,2,12,0.00
2013-6-21,92.5,85.2,72.0,72.8,50.5,12.5,53,34,1,30.09,30.01,13,3,13,0.00
2013-6-22,88.9,80.8,72.2,70.5,41.6,12.7,56,28,1,30.08,29.95,11,2,11,0.00
2013-6-23,90.9,80.5,70.9,71.2,40.1,11.7,54,26,1,30.02,29.93,13,3,13,0.00
2013-6-24,91.1,80.6,73.1,71.5,43.7,13.4,55,32,3,30.07,29.95,15,2,15,0.00
2013-6-25,88.6,81.1,73.8,70.4,52.6,14.0,59,41,10,29.99,29.85,15,3,15,0.00
2013-6-26,94.3,83.0,75.8,77.0,60.1,15.4,60,48,3,29.96,29.84,16,4,16,0.00
2013-6-27,99.9,85.5,72.0,77.7,47.4,12.5,57,29,1,30.01,29.89,8,2,8,0.00
2013-6-28,94.0,81.3,69.8,70.6,48.2,10.7,58,35,1,29.99,29.86,6,1,6,0.00
2013-6-29,88.2,76.0,62.5,62.7,50.4,14.8,59,42,16,29.93,29.84,8,2,8,0.00
2013-6-30,83.5,69.7,59.9,62.2,43.9,3.2,59,42,8,30.01,29.88,12,1,12,0.00
2013-7-1,82.8,69.6,59.8,59.9,36.9,3.0,58,34,5,30.08,30.00,10,1,10,0.00
2013-7-2,86.2,70.8,57.1,59.0,46.3,19.7,59,42,23,30.12,30.05,10,1,10,0.00
2013-7-3,89.1,75.2,59.0,60.3,52.5,33.3,58,46,34,30.13,30.03,8,2,8,0.00
2013-7-4,93.2,75.7,63.4,63.4,54.9,41.2,59,49,34,30.09,29.99,7,2,9,0.00
2013-7-5,91.8,77.0,64.8,64.1,56.4,44.6,59,50,35,30.06,29.95,9,2,9,0.00
2013-7-6,88.9,78.5,69.1,68.9,61.2,50.2,61,56,47,30.07,29.96,8,1,8,0.03
2013-7-7,90.7,83.0,71.6,69.5,64.7,52.6,61,54,41,30.07,30.00,10,2,10,0.00
2013-7-8,97.2,83.3,71.6,72.5,64.7,50.9,62,54,42,30.12,30.04,13,2,13,0.00
2013-7-9,97.4,84.4,74.0,72.5,64.0,46.7,62,51,38,30.10,29.98,14,3,14,0.00
2013-7-10,93.1,81.0,74.9,72.6,65.0,57.1,63,59,50,30.04,30.01,9,2,9,0.00
2013-8-6,94.3,84.9,71.3,29.5,22.4,-20.4,10,1,1,29.93,29.82,10,2,10,0.00
2013-8-7,83.2,76.7,71.6,21.1,16.1,12.2,1,1,1,29.96,29.83,9,2,9,0.21
2013-8-8,87.1,76.9,67.9,23.8,16.2,9.4,1,1,1,29.98,29.89,9,2,9,0.88
2013-8-9,86.0,73.3,65.2,23.2,13.5,7.2,1,1,1,30.07,29.93,14,2,14,0.01
2013-8-10,89.6,74.8,65.0,59.7,18.3,7.1,39,5,1,30.15,30.07,15,3,15,0.00
2013-8-11,95.2,76.6,66.4,60.9,17.9,-9.0,35,3,1,30.11,30.03,8,1,8,0.00
2013-8-12,89.8,74.8,68.4,53.3,15.1,7.9,30,2,1,30.11,29.98,9,1,9,0.25
2013-8-13,84.8,74.3,63.7,22.1,14.3,6.1,1,1,1,30.09,30.00,8,1,8,0.00
2013-8-14,84.2,70.0,59.4,62.5,22.7,-16.9,48,15,1,30.17,30.08,10,2,10,0.00
2013-8-15,83.9,64.7,53.6,59.6,15.7,-2.2,49,11,1,30.14,30.03,5,1,5,0.00
2013-8-16,84.6,69.3,58.0,63.5,25.2,1.6,50,18,1,30.14,30.04,8,2,8,0.00
2013-8-17,86.9,65.7,54.0,64.3,17.1,-1.3,49,12,1,30.17,30.08,6,1,6,0.00
2013-8-18,91.1,69.6,57.8,66.1,20.7,1.5,49,12,1,30.16,30.07,6,1,6,0.00
2013-8-19,92.2,73.5,59.0,67.2,27.6,-18.8,50,17,1,30.13,30.03,5,1,5,0.00
2013-8-20,90.2,75.3,61.0,68.4,29.7,4.2,51,18,1,30.11,30.03,7,1,7,0.00
2013-8-21,92.9,76.8,61.9,71.2,29.1,4.9,53,16,1,30.13,30.05,9,2,9,0.00
2013-8-22,97.0,79.6,70.2,74.1,30.0,-1.4,52,15,1,30.14,30.04,7,1,7,0.00
2013-8-23,97.2,80.8,65.3,72.3,34.7,7.4,51,18,1,30.11,30.02,6,1,6,0.00
2013-8-24,94.7,80.8,66.8,73.3,32.2,8.6,51,16,1,30.17,30.07,6,2,6,0.00
2013-8-25,99.0,81.8,68.0,74.3,33.2,-9.9,51,16,1,30.23,30.14,6,2,6,0.00
2013-8-26,94.0,80.7,69.8,72.5,29.4,10.0,50,13,1,30.23,30.11,8,2,8,0.00
2013-8-27,92.7,78.9,68.2,71.8,29.7,-10.6,53,15,1,30.15,30.05,10,2,10,0.00
2013-8-28,94.3,80.0,68.2,72.9,32.2,9.6,52,16,1,30.11,30.04,10,2,10,0.00
2013-8-29,98.6,83.4,70.0,74.1,39.9,11.0,51,22,1,30.10,30.01,8,2,8,0.00
2013-8-30,97.9,84.5,72.5,75.2,40.3,9.5,54,22,1,30.03,29.90,9,2,9,0.00
2013-8-31,99.2,84.4,73.4,74.9,41.9,13.7,53,23,1,29.94,29.83,10,2,10,0.00
2013-9-1,91.1,78.9,69.3,71.4,25.4,-16.4,53,10,1,29.95,29.82,9,2,9,0.05
2013-9-2,90.4,74.7,63.0,66.6,29.5,5.7,52,18,1,30.04,29.94,6,1,6,0.00
2013-9-3,93.6,73.7,55.4,65.7,33.2,-7.7,52,23,1,30.10,30.01,5,1,5,0.00
2013-9-4,96.8,75.5,59.2,66.3,34.2,-5.1,52,23,1,30.17,30.07,5,1,5,0.00
2013-9-5,96.8,76.1,59.8,67.2,35.1,-1.0,52,23,1,30.21,30.12,5,1,5,0.00
2013-9-6,96.7,76.7,60.7,68.4,35.7,3.8,52,23,1,30.16,30.03,7,1,7,0.00
2013-9-7,96.8,82.1,69.1,71.3,40.6,10.3,52,24,1,30.07,29.96,10,2,10,0.00
2013-9-8,97.6,82.4,70.7,71.4,39.8,11.5,52,23,1,30.00,29.91,9,2,9,0.00
2013-9-9,96.5,82.9,70.9,69.8,46.8,11.7,53,31,1,30.03,29.94,12,2,12,0.00
2013-9-10,95.6,81.6,72.7,69.6,54.7,12.7,55,41,1,30.14,30.01,11,2,11,0.00
2013-9-11,97.6,81.9,70.9,70.8,42.1,3.8,53,27,1,30.18,30.07,9,1,9,0.00
2013-9-12,93.2,80.1,68.2,71.2,37.4,9.6,53,23,1,30.12,30.03,8,1,8,0.00
2013-9-13,85.0,71.6,60.8,57.1,38.6,4.9,55,33,1,30.13,30.03,11,3,11,0.00
2013-9-14,86.9,68.4,52.4,56.4,34.2,-2.8,54,30,1,30.11,29.99,9,2,9,0.00
2013-9-15,91.8,75.2,62.3,68.1,46.7,10.8,55,38,1,30.07,30.00,12,2,12,0.00
2013-9-16,80.5,69.8,64.4,18.9,10.8,6.7,1,1,1,30.21,30.06,9,1,9,0.28
2013-9-17,80.6,71.8,64.4,19.1,12.3,6.7,1,1,1,30.16,30.01,8,3,9,0.00
2013-9-18,92.9,78.4,67.5,70.8,29.2,9.1,52,15,1,30.04,29.93,10,2,10,0.00
2013-9-19,91.8,79.0,66.8,70.6,32.0,8.6,53,17,1,30.00,29.87,15,3,15,0.00
2013-9-20,71.8,64.6,52.6,44.4,11.6,-2.5,39,7,1,30.03,29.94,10,1,10,0.11
2013-9-21,81.7,62.5,45.2,53.6,21.8,-8.2,53,21,1,30.04,29.93,7,1,7,0.00
2013-9-22,82.4,64.4,48.1,55.1,24.9,-10.7,52,22,1,30.01,29.88,8,1,8,0.00
2013-9-23,82.8,67.3,54.7,58.1,30.0,-0.7,54,26,1,29.95,29.82,13,2,13,0.00
2013-9-24,81.7,68.1,56.5,60.7,28.3,0.5,54,24,1,29.89,29.85,12,2,12,0.00
2013-9-25,90.7,66.9,50.8,64.9,22.1,-4.0,52,17,1,29.91,29.84,6,1,6,0.00
2013-9-26,89.6,73.3,58.0,63.5,31.7,1.6,52,22,1,29.96,29.86,9,2,9,0.00
2013-9-27,88.2,75.0,63.0,65.3,36.3,5.7,53,26,1,30.02,29.91,9,2,9,0.00
2013-9-28,77.4,65.8,52.7,45.2,9.7,-19.2,32,4,1,30.08,29.90,10,2,10,0.59
2013-9-29,84.1,62.8,51.3,58.3,17.9,-21.7,51,16,1,30.09,29.96,9,1,9,0.00
2013-9-30,85.3,66.5,52.4,64.1,18.7,-2.6,50,13,1,29.96,29.85,8,1,8,0.01
2013-10-1,88.0,72.5,61.7,67.2,24.0,4.7,52,14,1,30.00,29.89,7,1,7,0.00
2013-10-2,86.8,72.5,64.4,62.2,17.7,6.7,45,6,1,30.04,29.92,12,1,12,0.00
2013-10-3,86.8,74.1,65.7,64.5,19.7,7.7,48,8,1,29.95,29.84,10,2,10,0.00
2013-10-4,87.3,74.9,66.6,65.9,22.1,8.4,50,9,1,29.93,29.85,11,2,11,0.00
2013-10-5,72.7,55.3,44.6,48.4,4.8,-8.6,54,8,1,30.08,29.91,10,1,10,1.07
2013-10-6,67.7,53.6,42.8,47.2,17.0,-10.1,55,25,1,30.02,29.94,13,3,13,0.00
2013-10-7,82.1,56.5,38.5,50.0,18.6,-13.3,55,23,1,30.15,30.01,5,0,5,0.00
2013-10-8,78.5,60.7,46.1,52.8,23.5,-7.5,53,25,1,30.15,30.05,10,2,10,0.00
2013-10-9,82.8,62.7,44.5,54.4,24.4,-23.6,56,24,1,30.12,30.03,9,1,9,0.00
2013-10-10,81.7,65.2,51.3,59.7,24.4,-3.5,55,21,1,30.09,29.92,8,2,8,0.00
2013-10-11,77.4,65.8,55.6,25.9,7.8,-0.1,16,1,1,29.93,29.85,14,2,14,0.02
2013-10-12,77.9,63.5,56.2,57.9,16.6,0.4,52,15,1,30.18,29.88,9,1,9,0.64
2013-10-13,77.8,62.5,53.8,55.5,28.2,-6.6,53,30,1,30.32,30.18,10,2,10,0.01
2013-10-14,64.4,60.1,58.0,43.9,12.7,1.6,54,14,1,30.25,29.93,10,1,10,0.09
2013-10-15,60.8,54.9,47.0,7.7,-0.6,-6.7,13,1,1,30.06,29.88,8,1,10,0.18
2013-10-16,65.2,50.1,35.1,47.5,10.6,-34.6,56,21,1,30.12,30.00,5,1,5,0.00
2013-10-17,67.7,50.5,38.5,47.5,10.6,-13.3,57,20,1,30.05,29.96,10,2,10,0.01
2013-10-18,58.5,46.0,37.1,38.7,0.0,-14.5,49,11,1,30.09,29.99,6,1,6,0.22
2013-10-19,62.3,45.0,32.0,42.4,6.9,-18.4,57,21,1,30.11,29.99,11,3,11,0.01
2013-10-20,71.1,54.7,41.8,45.2,19.9,-11.0,58,28,1,30.00,29.85,14,2,14,0.00
2013-10-21,62.3,49.4,37.3,42.6,11.1,-14.5,57,22,1,30.11,29.94,5,0,5,0.00
2013-10-22,72.4,51.4,35.6,49.4,19.5,-15.7,60,31,1,30.07,29.93,15,3,15,0.00
2013-10-23,65.9,48.0,31.7,43.2,13.4,-18.6,58,27,1,30.17,30.00,7,1,7,0.00
2013-10-24,58.5,45.3,36.7,37.2,14.0,-14.2,60,31,1,30.38,30.07,9,1,9,0.00
2013-10-25,63.0,45.7,31.7,33.0,18.9,-18.6,58,37,1,30.45,30.18,9,2,9,0.00
2013-10-26,67.3,52.4,43.7,50.9,16.3,-8.6,57,26,1,30.18,30.09,13,3,13,0.00
2013-10-27,74.2,51.7,33.5,44.1,21.3,-28.7,60,33,1,30.12,29.98,6,1,6,0.00
2013-10-28,74.0,56.7,42.7,53.9,13.4,-29.0,55,17,1,30.14,30.01,7,1,7,0.00
2013-10-29,57.2,55.0,53.6,1.1,-0.6,-1.6,1,1,1,30.11,29.99,8,1,8,1.25
2013-11-1,60.8,49.2,43.6,45.0,7.7,-9.5,57,18,1,30.00,29.86,4,1,4,0.00
2013-11-2,61.6,47.2,36.4,42.8,11.3,-15.1,58,25,1,30.20,30.00,6,1,6,0.00
2013-11-3,63.7,49.3,34.9,41.1,19.6,-16.2,58,34,1,30.18,29.98,10,2,12,0.00
2013-11-4,64.1,54.1,49.1,46.5,11.9,-5.1,56,19,1,30.12,29.97,10,3,10,0.03
2013-11-5,59.2,54.5,50.8,2.7,-1.0,-4.0,1,1,1,30.12,29.91,8,3,8,0.68
2013-11-6,59.0,40.9,28.4,9.5,-10.9,-21.4,23,3,1,30.33,29.89,7,2,7,1.05
2013-11-7,66.6,43.5,26.3,42.7,9.6,-22.9,58,26,1,30.41,30.31,8,1,8,0.01
2013-11-8,66.6,52.0,35.6,42.1,21.0,-15.7,60,32,1,30.32,30.02,16,3,16,0.00
2013-11-9,70.7,55.6,47.3,46.4,35.9,0.9,60,49,16,30.26,30.06,12,3,12,0.00
2013-11-10,71.6,55.5,42.1,43.1,27.7,-10.6,60,37,1,30.36,30.23,12,2,12,0.00
2013-11-11,63.4,53.4,38.7,48.2,14.4,-13.3,58,23,1,30.43,30.16,12,3,12,0.00
2013-11-12,42.8,31.3,21.4,20.7,13.2,-14.9,63,49,5,30.73,30.43,13,3,13,0.00
2013-11-13,53.3,36.6,20.2,22.9,17.1,1.1,60,46,29,30.65,30.26,12,2,12,0.00
2013-11-14,53.8,42.5,32.4,31.2,24.4,19.7,62,50,32,30.26,30.00,15,5,15,0.00
2013-11-15,63.9,50.6,41.2,47.2,18.7,-11.2,62,33,1,30.01,29.81,14,3,14,0.07
2013-11-16,71.8,61.4,50.0,51.0,6.1,-4.5,48,3,1,29.82,29.57,19,8,19,0.10
2013-11-17,72.5,64.4,47.3,53.5,26.8,9.0,57,25,1,30.08,29.51,27,8,27,0.00
2013-11-18,67.0,49.6,34.6,39.9,23.0,-16.8,61,38,1,30.24,30.03,9,1,9,0.00
2013-11-19,61.9,51.9,44.3,31.4,27.1,19.8,53,39,25,30.23,30.02,16,3,16,0.00
2013-11-20,61.4,53.7,45.7,40.2,28.9,14.0,54,39,23,30.03,29.87,17,6,17,0.04
2013-11-21,56.9,48.0,32.4,42.7,1.7,-18.3,60,11,1,30.29,29.96,10,3,10,1.12
2013-11-22,33.1,29.7,26.8,-17.6,-20.2,-22.5,1,1,1,30.50,30.28,11,5,11,0.00
2013-11-23,42.3,30.2,20.5,25.1,5.7,-21.2,64,40,1,30.64,30.47,13,2,13,0.00
2013-11-24,31.9,24.8,17.5,16.2,9.8,0.3,61,52,46,30.62,30.30,6,0,6,0.00
2013-11-25,36.5,32.9,30.1,20.2,1.5,-19.0,62,29,1,30.30,30.14,9,1,9,0.01
2013-11-26,45.7,32.0,25.0,30.0,0.9,-22.7,62,31,1,30.33,30.11,9,1,9,0.00
2013-11-27,44.1,26.9,15.8,17.6,9.5,-16.4,62,49,22,30.40,30.24,12,0,12,0.00
2013-11-28,56.2,38.1,25.6,31.5,21.5,6.5,62,52,37,30.41,30.21,16,4,16,0.00
2013-11-29,57.1,42.2,31.9,31.2,21.0,1.9,60,43,29,30.46,30.26,9,2,9,0.00
2013-11-30,60.3,47.6,38.3,44.5,24.6,-9.8,62,45,1,30.28,30.09,19,5,19,0.00
2013-12-1,50.4,44.4,37.8,-4.2,-8.8,-14.0,1,1,1,30.11,29.88,7,1,7,0.02
2013-12-2,66.6,48.2,36.9,49.2,3.0,-14.7,57,12,1,29.88,29.65,10,2,10,0.00
2013-12-3,72.2,53.3,41.6,50.4,10.9,-13.9,59,17,1,29.66,29.53,8,2,8,0.02
2013-12-4,55.3,41.7,28.1,27.8,-10.0,-21.5,35,2,1,30.00,29.52,18,4,18,0.00
2013-12-5,28.3,23.3,19.1,13.9,-4.5,-28.5,61,33,1,30.26,29.97,10,4,10,0.00
2013-12-6,21.1,17.5,11.9,10.0,-8.3,-30.9,65,37,1,30.51,30.20,11,3,11,0.00
2013-12-7,22.7,15.0,6.5,9.1,3.9,-4.7,66,61,51,30.58,30.25,10,2,10,0.00
2013-12-8,27.7,23.8,19.1,10.1,-18.1,-29.7,61,12,1,30.25,29.96,14,2,14,0.00
2013-12-9,25.9,21.0,16.6,13.3,-13.4,-30.7,63,23,1,30.31,30.13,9,2,9,0.00
2013-12-10,37.3,18.0,6.3,18.6,-9.0,-36.9,64,36,4,30.37,30.20,10,2,10,0.16
2013-12-11,40.3,25.7,18.5,22.5,2.6,-29.0,66,42,1,30.56,30.23,8,1,10,0.03
2013-12-12,45.4,28.9,13.9,26.8,17.0,4.8,68,61,48,30.56,30.21,16,3,16,0.01
2013-12-13,37.8,34.4,31.3,24.1,-0.1,-18.1,64,26,1,30.21,29.82,12,4,12,0.56
2013-12-14,33.1,29.2,20.2,-17.6,-20.7,-27.7,10,2,1,30.21,29.82,11,3,11,0.10
2013-12-15,54.2,35.0,18.0,35.6,7.1,-29.5,62,35,1,30.22,30.07,15,4,15,0.00
2013-12-16,66.1,48.5,39.2,36.4,31.9,26.8,63,54,31,30.11,30.02,12,5,12,0.00
2013-12-17,58.9,42.7,28.4,38.9,20.6,-33.0,64,45,1,30.28,30.10,8,0,8,0.00
2013-12-18,64.8,50.2,35.8,40.1,33.1,24.4,63,53,36,30.25,29.91,20,7,20,0.00
2013-12-19,60.7,56.5,52.2,40.8,29.7,2.5,62,39,9,29.91,29.70,19,8,19,0.00
2013-12-20,63.0,39.8,28.1,34.9,-6.1,-21.5,44,12,1,29.91,29.68,15,4,15,0.03
2013-12-21,31.7,30.8,29.0,-18.6,-19.3,-20.8,2,1,1,29.80,29.49,0,0,1,0.00
2013-12-22,31.1,27.4,23.9,-10.9,-20.4,-23.6,20,7,1,30.32,29.69,0,0,0,0.00
2013-12-23,28.8,21.5,13.5,12.8,-2.9,-14.0,56,35,18,30.54,30.32,0,0,0,0.00
2013-12-24,43.6,26.8,13.7,29.2,8.9,-10.0,60,47,30,30.52,30.18,11,1,11,0.38
2013-12-25,45.0,34.1,27.7,30.7,1.8,-21.8,59,26,1,30.35,30.24,8,2,8,0.00
2013-12-26,52.9,35.9,23.0,32.4,4.9,-33.1,62,30,1,30.35,30.24,13,2,13,0.02
2013-12-27,59.8,42.9,31.5,35.3,22.8,-18.8,62,47,9,30.37,30.26,11,2,11,0.00
2013-12-28,57.8,44.1,33.8,37.1,26.5,8.6,61,50,35,30.26,29.90,12,3,12,0.00
2013-12-29,44.6,29.1,17.5,30.3,14.3,-0.7,65,55,23,30.25,29.90,10,1,10,0.00
2013-12-30,39.2,23.8,11.2,20.3,12.0,2.3,68,61,45,30.31,30.17,10,2,10,0.00
2013-12-31,55.4,37.7,22.3,30.7,21.1,9.3,63,52,33,30.32,30.11,16,5,16,0.00
2014-1-1,55.6,38.2,18.5,33.2,21.5,-10.3,63,52,23,30.16,29.86,10,3,10,0.00
2014-1-2,28.3,14.8,4.7,12.2,4.3,-4.3,71,63,43,30.41,30.16,9,0,9,0.01